SBMO/MCZ METAR and TAF weather

Enter ICAO airport designator
Station Type Date Time Source
SBMO METAR 2021/01/16 02:00 UTC NOAA

SBMO 160200Z 06003KT 9999 SCT020 23/22 Q1012


Station Type Date Time Source
SBMO Decoded METAR 2021/01/16 02:00 UTC NOAA

Maceio Aeroporto , Brazil (SBMO) 09-31S 035-47W 115M
Jan 15, 2021 - 09:00 PM EST / 2021.01.16 0200 UTC
Wind: from the ENE (060 degrees) at 3 MPH (3 KT):0
Visibility: greater than 7 mile(s):0
Sky conditions: partly cloudy
Temperature: 73 F (23 C)
Dew Point: 71 F (22 C)
Relative Humidity: 94%
Pressure (altimeter): 29.88 in. Hg (1012 hPa)
ob: SBMO 160200Z 06003KT 9999 SCT020 23/22 Q1012
cycle: 2

Station Type Date Time Source
SBMO TAF 2021/01/16 00:00 UTC NOAA

TAF SBMO 152100Z 1600/1624 08005KT 9999 FEW025 TX32/1617Z TN25/1623Z
BECMG 1609/1611 03005KT FEW020
BECMG 1616/1618 11015KT
BECMG 1621/1623 07005KT
RMK PGY

Example: see airport list